createdAt,value
2022-10-10T00:00:12.999Z,3.47
2022-10-10T00:03:15.278Z,3.33
2022-10-10T00:06:19.105Z,4.00
2022-10-10T00:09:21.026Z,3.70
2022-10-10T00:12:22.928Z,3.47
2022-10-10T00:15:24.923Z,3.97
2022-10-10T00:18:26.907Z,3.40
2022-10-10T00:21:28.875Z,4.28
2022-10-10T00:24:30.813Z,3.47
2022-10-10T00:27:32.976Z,4.67
2022-10-10T00:30:34.933Z,4.28
2022-10-10T00:33:37.355Z,4.05
2022-10-10T00:36:39.263Z,4.20
2022-10-10T00:39:41.220Z,4.23
2022-10-10T00:42:43.182Z,3.55
2022-10-10T00:45:45.971Z,3.28
2022-10-10T00:48:47.943Z,3.87
2022-10-10T00:51:51.283Z,3.42
2022-10-10T00:54:53.230Z,3.95
2022-10-10T00:57:55.269Z,4.97
2022-10-10T01:00:57.297Z,3.15
2022-10-10T01:04:00.226Z,3.70
2022-10-10T01:07:04.663Z,4.25
2022-10-10T01:10:08.654Z,2.90
2022-10-10T01:13:15.363Z,4.20
2022-10-10T01:16:26.940Z,3.80
2022-10-10T01:19:31.602Z,4.17
2022-10-10T01:22:52.484Z,4.15
2022-10-10T01:26:12.668Z,3.40
2022-10-10T01:29:14.675Z,3.50
2022-10-10T01:32:20.171Z,3.83
2022-10-10T01:35:37.248Z,3.72
2022-10-10T01:38:45.775Z,4.13
2022-10-10T01:41:50.875Z,5.00
2022-10-10T01:44:54.048Z,4.13
2022-10-10T01:47:58.176Z,4.10
2022-10-10T01:51:14.876Z,4.60
2022-10-10T01:54:16.786Z,4.70
2022-10-10T01:57:19.711Z,4.35
2022-10-10T02:00:21.689Z,3.80
2022-10-10T02:03:27.186Z,4.17
2022-10-10T02:06:31.183Z,5.07
2022-10-10T02:09:37.536Z,4.25
2022-10-10T02:12:39.831Z,4.27
2022-10-10T02:15:44.897Z,3.97
2022-10-10T02:18:47.907Z,4.47
2022-10-10T02:21:51.219Z,4.60
2022-10-10T02:24:53.388Z,4.78
2022-10-10T02:27:58.060Z,4.85
2022-10-10T02:31:03.159Z,4.38
2022-10-10T02:34:08.180Z,3.80
2022-10-10T02:37:12.550Z,3.70
2022-10-10T02:40:16.488Z,4.63
2022-10-10T02:43:19.618Z,4.90
2022-10-10T02:46:21.636Z,4.32
2022-10-10T02:49:24.626Z,5.10
2022-10-10T02:52:26.592Z,4.93
2022-10-10T02:55:28.571Z,5.50
2022-10-10T02:58:30.476Z,5.05
2022-10-10T03:01:32.436Z,4.93
2022-10-10T03:04:34.933Z,4.77
2022-10-10T03:07:36.880Z,4.72
2022-10-10T03:10:39.157Z,4.05
2022-10-10T03:13:41.112Z,5.60
2022-10-10T03:16:43.076Z,3.95
2022-10-10T03:19:45.039Z,4.43
2022-10-10T03:22:46.983Z,5.32
2022-10-10T03:25:48.926Z,5.03
2022-10-10T03:28:51.814Z,4.80
2022-10-10T03:31:53.776Z,5.18
2022-10-10T03:34:55.746Z,4.90
2022-10-10T03:37:58.427Z,4.90
2022-10-10T03:41:00.385Z,4.53
2022-10-10T03:44:02.364Z,4.77
2022-10-10T03:47:04.336Z,4.63
2022-10-10T03:50:06.516Z,5.13
2022-10-10T03:53:08.544Z,4.28
2022-10-10T03:56:10.490Z,4.90
2022-10-10T03:59:12.470Z,4.72
2022-10-10T04:02:14.408Z,4.70
2022-10-10T04:05:16.404Z,4.77
2022-10-10T04:08:18.643Z,4.95
2022-10-10T04:11:20.655Z,4.72
2022-10-10T04:14:22.631Z,4.77
2022-10-10T04:17:24.658Z,4.70
2022-10-10T04:20:26.638Z,5.63
2022-10-10T04:23:28.563Z,5.95
2022-10-10T04:26:30.525Z,4.57
2022-10-10T04:29:32.453Z,5.57
2022-10-10T04:32:34.386Z,5.80
2022-10-10T04:35:37.321Z,5.23
2022-10-10T04:38:39.431Z,6.00
2022-10-10T04:41:41.367Z,5.32
2022-10-10T04:44:43.287Z,6.17
2022-10-10T04:47:45.236Z,5.85
2022-10-10T04:50:51.454Z,5.65
2022-10-10T04:53:53.559Z,5.75
2022-10-10T04:56:55.496Z,5.68
2022-10-10T04:59:57.542Z,6.18
2022-10-10T05:02:59.488Z,7.40
2022-10-10T05:06:01.508Z,5.93
2022-10-10T05:09:03.806Z,6.30
2022-10-10T05:12:05.839Z,6.50
2022-10-10T05:15:07.913Z,6.40
2022-10-10T05:18:09.969Z,5.13
2022-10-10T05:21:12.047Z,5.85
2022-10-10T05:24:14.092Z,6.20
2022-10-10T05:27:16.084Z,5.70
2022-10-10T05:30:18.387Z,6.13
2022-10-10T05:33:20.784Z,6.40
2022-10-10T05:36:22.977Z,5.93
2022-10-10T05:39:25.245Z,7.10
2022-10-10T05:42:27.337Z,7.45
2022-10-10T05:45:31.945Z,6.47
2022-10-10T05:48:33.995Z,5.82
2022-10-10T05:51:36.414Z,6.80
2022-10-10T05:54:39.292Z,5.72
2022-10-10T05:57:41.566Z,6.05
2022-10-10T06:00:45.022Z,6.88
2022-10-10T06:03:52.873Z,8.07
2022-10-10T06:06:55.110Z,6.07
2022-10-10T06:09:57.200Z,7.68
2022-10-10T06:12:59.275Z,6.80
2022-10-10T06:16:01.507Z,6.43
2022-10-10T06:19:03.763Z,8.18
2022-10-10T06:22:05.938Z,5.22
2022-10-10T06:25:23.974Z,5.65
2022-10-10T06:28:31.642Z,5.13
2022-10-10T06:31:34.084Z,4.60
2022-10-10T06:34:36.097Z,4.50
2022-10-10T06:37:38.111Z,4.72
2022-10-10T06:40:40.238Z,4.13
2022-10-10T06:43:42.740Z,5.00
2022-10-10T06:46:46.838Z,4.10
2022-10-10T06:49:49.680Z,5.20
2022-10-10T06:52:52.246Z,4.97
2022-10-10T06:55:55.693Z,4.50
2022-10-10T06:58:57.850Z,3.70
2022-10-10T07:02:00.794Z,3.77
2022-10-10T07:05:02.870Z,3.97
2022-10-10T07:08:04.989Z,4.38
2022-10-10T07:11:07.833Z,3.90
2022-10-10T07:14:09.898Z,8.50
2022-10-10T07:17:11.905Z,5.23
2022-10-10T07:20:14.012Z,4.00
2022-10-10T07:23:16.084Z,4.50
2022-10-10T07:26:22.442Z,4.10
2022-10-10T07:29:24.889Z,4.20
2022-10-10T07:32:26.844Z,4.53
2022-10-10T07:35:28.942Z,4.23
2022-10-10T07:38:30.939Z,5.35
2022-10-10T07:41:33.034Z,4.60
2022-10-10T07:44:35.059Z,5.00
2022-10-10T07:47:37.481Z,3.63
2022-10-10T07:50:42.790Z,3.73
2022-10-10T07:53:44.905Z,3.28
2022-10-10T07:56:47.012Z,2.85
2022-10-10T07:59:49.137Z,3.55
2022-10-10T08:02:52.306Z,3.20
2022-10-10T08:05:54.323Z,5.60
2022-10-10T08:08:56.376Z,4.28
2022-10-10T08:11:58.395Z,3.78
2022-10-10T08:15:00.920Z,3.40
2022-10-10T08:18:02.925Z,3.80
2022-10-10T08:21:06.652Z,3.27
2022-10-10T08:24:08.765Z,3.38
2022-10-10T08:27:10.857Z,3.30
2022-10-10T08:30:13.173Z,4.15
2022-10-10T08:33:15.253Z,3.23
2022-10-10T08:36:18.911Z,3.37
2022-10-10T08:39:28.879Z,3.70
2022-10-10T08:42:34.249Z,2.80
2022-10-10T08:45:38.772Z,3.50
2022-10-10T08:48:41.646Z,4.83
2022-10-10T08:51:47.229Z,3.93
2022-10-10T08:54:49.701Z,4.15
2022-10-10T08:57:53.660Z,3.47
2022-10-10T09:01:01.532Z,3.13
2022-10-10T09:04:05.783Z,3.67
2022-10-10T09:07:22.506Z,5.60
2022-10-10T09:10:39.684Z,3.55
2022-10-10T09:13:54.253Z,2.55
2022-10-10T09:17:00.598Z,3.97
2022-10-10T09:20:17.927Z,3.93
2022-10-10T09:23:32.197Z,4.00
2022-10-10T09:26:37.435Z,3.17
2022-10-10T09:29:46.311Z,3.65
2022-10-10T09:33:03.376Z,3.50
2022-10-10T09:36:08.945Z,3.00
2022-10-10T09:39:17.505Z,4.67
2022-10-10T09:42:26.156Z,3.15
2022-10-10T09:45:30.539Z,3.42
2022-10-10T09:48:34.169Z,4.40
2022-10-10T09:51:36.122Z,3.10
2022-10-10T09:54:38.139Z,2.90
2022-10-10T09:57:42.644Z,2.47
2022-10-10T10:00:44.886Z,3.00
2022-10-10T10:04:23.423Z,2.55
2022-10-10T10:07:32.010Z,3.00
2022-10-10T10:10:35.386Z,3.13
2022-10-10T10:13:37.801Z,4.45
2022-10-10T10:16:39.996Z,2.60
2022-10-10T10:19:44.291Z,2.38
2022-10-10T10:22:47.276Z,2.73
2022-10-10T10:25:57.368Z,3.43
2022-10-10T10:28:59.853Z,3.03
2022-10-10T10:32:21.018Z,3.53
2022-10-10T10:35:41.757Z,3.53
2022-10-10T10:38:46.490Z,2.80
2022-10-10T10:42:09.025Z,2.77
2022-10-10T10:45:29.991Z,2.85
2022-10-10T10:48:35.052Z,2.63
2022-10-10T10:51:45.905Z,3.88
2022-10-10T10:55:03.107Z,2.97
2022-10-10T10:58:48.564Z,3.20
2022-10-10T11:01:56.141Z,2.80
2022-10-10T11:05:24.257Z,3.00
2022-10-10T11:08:41.436Z,3.00
2022-10-10T11:11:49.685Z,2.80
2022-10-10T11:14:55.819Z,2.97
2022-10-10T11:18:16.418Z,2.60
2022-10-10T11:21:23.377Z,2.60
2022-10-10T11:24:25.286Z,2.90
2022-10-10T11:27:34.063Z,2.67
2022-10-10T11:30:39.455Z,2.50
2022-10-10T11:33:45.934Z,2.75
2022-10-10T11:36:48.903Z,2.67
2022-10-10T11:39:54.216Z,2.72
2022-10-10T11:42:59.931Z,2.40
2022-10-10T11:46:14.045Z,2.77
2022-10-10T11:49:23.989Z,2.42
2022-10-10T11:52:37.480Z,2.25
2022-10-10T11:55:45.208Z,2.40
2022-10-10T11:58:50.916Z,3.07
2022-10-10T12:01:55.351Z,2.63
2022-10-10T12:04:57.598Z,3.20
2022-10-10T12:08:18.825Z,2.42
2022-10-10T12:11:27.035Z,2.25
2022-10-10T12:14:31.498Z,3.13
2022-10-10T12:17:34.351Z,2.70
2022-10-10T12:20:37.209Z,2.78
2022-10-10T12:23:41.305Z,2.78
2022-10-10T12:26:52.537Z,3.38
2022-10-10T12:29:57.640Z,3.00
2022-10-10T12:32:59.855Z,3.80
2022-10-10T12:36:16.904Z,3.33
2022-10-10T12:39:18.842Z,3.80
2022-10-10T12:42:31.970Z,3.38
2022-10-10T12:45:34.072Z,2.97
2022-10-10T12:48:36.267Z,2.83
2022-10-10T12:51:38.510Z,2.70
2022-10-10T12:54:42.170Z,3.28
2022-10-10T12:57:45.878Z,3.80
2022-10-10T13:00:48.161Z,3.80
2022-10-10T13:03:50.685Z,4.13
2022-10-10T13:06:55.359Z,4.10
2022-10-10T13:10:04.863Z,2.70
2022-10-10T13:13:15.967Z,3.00
2022-10-10T13:16:19.439Z,3.67
2022-10-10T13:19:23.243Z,3.40
2022-10-10T13:22:25.466Z,3.50
2022-10-10T13:25:27.512Z,3.30
2022-10-10T13:28:29.843Z,3.95
2022-10-10T13:31:31.952Z,3.47
2022-10-10T13:34:35.783Z,3.30
2022-10-10T13:37:37.812Z,3.38
2022-10-10T13:40:42.038Z,4.72
2022-10-10T13:43:44.074Z,5.05
2022-10-10T13:46:46.083Z,3.47
2022-10-10T13:49:55.587Z,3.60
2022-10-10T13:53:16.087Z,4.05
2022-10-10T13:56:21.294Z,4.10
2022-10-10T13:59:24.431Z,3.83
2022-10-10T14:02:29.932Z,4.30
2022-10-10T14:05:32.244Z,4.10
2022-10-10T14:08:34.209Z,3.88
2022-10-10T14:11:36.351Z,4.93
2022-10-10T14:14:46.575Z,3.67
2022-10-10T14:17:51.715Z,3.67
2022-10-10T14:20:53.747Z,4.30
2022-10-10T14:23:55.716Z,4.55
2022-10-10T14:26:58.247Z,4.72
2022-10-10T14:30:00.249Z,4.78
2022-10-10T14:33:02.354Z,4.30
2022-10-10T14:36:04.555Z,5.80
2022-10-10T14:39:06.630Z,7.78
2022-10-10T14:42:11.372Z,6.07
2022-10-10T14:45:14.982Z,4.55
2022-10-10T14:48:16.889Z,3.93
2022-10-10T14:51:33.315Z,4.47
2022-10-10T14:54:36.673Z,3.83
2022-10-10T14:57:38.946Z,4.15
2022-10-10T15:00:40.848Z,4.30
2022-10-10T15:03:42.804Z,8.00
2022-10-10T15:07:08.348Z,8.93
2022-10-10T15:13:29.209Z,7.78
2022-10-10T15:16:31.763Z,7.30
2022-10-10T15:19:33.715Z,7.67
2022-10-10T15:22:36.179Z,8.23
2022-10-10T15:25:41.783Z,7.70
2022-10-10T15:28:43.767Z,6.07
2022-10-10T15:31:45.783Z,7.82
2022-10-10T15:34:48.859Z,5.67
2022-10-10T15:37:50.936Z,6.07
2022-10-10T15:40:58.741Z,6.40
2022-10-10T15:44:00.716Z,8.35
2022-10-10T15:47:02.679Z,10.85
2022-10-10T15:50:04.887Z,8.80
2022-10-10T15:53:06.865Z,7.57
2022-10-10T15:56:10.319Z,9.88
2022-10-10T15:59:13.954Z,20.30
2022-10-10T16:02:16.478Z,15.30
2022-10-10T16:05:18.419Z,12.47
2022-10-10T16:08:20.427Z,11.10
2022-10-10T16:11:23.689Z,10.25
2022-10-10T16:14:25.889Z,9.73
2022-10-10T16:17:27.851Z,9.70
2022-10-10T16:20:29.834Z,10.03
2022-10-10T16:23:32.053Z,9.70
2022-10-10T16:26:35.484Z,9.63
2022-10-10T16:29:38.781Z,9.80
2022-10-10T16:32:42.629Z,12.52
2022-10-10T16:35:44.857Z,13.27
2022-10-10T16:38:46.874Z,18.57
2022-10-10T16:41:49.435Z,18.17
2022-10-10T16:44:51.586Z,23.00
2022-10-10T16:47:53.536Z,21.95
2022-10-10T16:50:55.505Z,23.37
2022-10-10T16:53:59.931Z,20.93
2022-10-10T16:57:02.268Z,20.45
2022-10-10T17:00:05.771Z,28.48
2022-10-10T17:03:07.851Z,46.75
2022-10-10T17:06:13.118Z,47.27
2022-10-10T17:09:17.066Z,36.40
2022-10-10T17:12:19.631Z,34.75
2022-10-10T17:15:21.592Z,31.13
2022-10-10T17:18:23.536Z,29.00
2022-10-10T17:21:25.573Z,24.57
2022-10-10T17:24:27.523Z,24.47
2022-10-10T17:27:29.467Z,24.38
2022-10-10T17:30:31.371Z,24.95
2022-10-10T17:33:33.299Z,25.80
2022-10-10T17:36:35.256Z,29.47
2022-10-10T17:39:37.365Z,29.40
2022-10-10T17:42:39.291Z,29.52
2022-10-10T17:45:41.264Z,31.27
2022-10-10T17:48:43.551Z,34.50
2022-10-10T17:51:45.494Z,33.40
2022-10-10T17:54:47.423Z,34.10
2022-10-10T17:57:49.471Z,33.03
2022-10-10T18:00:51.530Z,30.85
2022-10-10T18:03:53.643Z,28.27
2022-10-10T18:06:55.604Z,29.30
2022-10-10T18:09:57.573Z,33.13
2022-10-10T18:13:00.094Z,32.50
2022-10-10T18:16:07.243Z,23.70
2022-10-10T18:19:10.431Z,22.10
2022-10-10T18:22:12.400Z,16.27
2022-10-10T18:25:14.332Z,16.93
2022-10-10T18:28:16.312Z,23.52
2022-10-10T18:31:19.609Z,17.05
2022-10-10T18:34:21.576Z,14.18
2022-10-10T18:37:23.507Z,15.30
2022-10-10T18:40:25.456Z,14.20
2022-10-10T18:43:28.198Z,13.75
2022-10-10T18:46:30.551Z,13.57
2022-10-10T18:49:32.528Z,18.20
2022-10-10T18:52:34.950Z,16.87
2022-10-10T18:55:37.906Z,18.10
2022-10-10T18:58:39.956Z,16.92
2022-10-10T19:01:44.141Z,17.23
2022-10-10T19:04:47.896Z,16.02
2022-10-10T19:07:49.842Z,16.10
2022-10-10T19:10:51.946Z,15.37
2022-10-10T19:13:54.034Z,12.18
2022-10-10T19:16:55.993Z,13.50
2022-10-10T19:19:57.935Z,13.43
2022-10-10T19:23:00.262Z,13.40
2022-10-10T19:26:03.741Z,15.67
2022-10-10T19:29:07.335Z,14.35
2022-10-10T19:32:09.509Z,14.20
2022-10-10T19:35:11.455Z,13.77
2022-10-10T19:38:13.514Z,12.23
2022-10-10T19:41:15.894Z,11.00
2022-10-10T19:44:17.904Z,11.02
2022-10-10T19:47:19.921Z,14.10
2022-10-10T19:50:21.915Z,14.98
2022-10-10T19:53:23.827Z,14.03
2022-10-10T19:56:26.065Z,15.93
2022-10-10T19:59:28.600Z,21.55
2022-10-10T20:02:30.558Z,19.40
2022-10-10T20:05:32.495Z,13.57
2022-10-10T20:08:34.511Z,17.83
2022-10-10T20:11:36.893Z,17.85
2022-10-10T20:14:38.875Z,15.50
2022-10-10T20:17:41.428Z,12.98
2022-10-10T20:20:44.300Z,11.47
2022-10-10T20:23:46.886Z,12.87
2022-10-10T20:26:48.816Z,12.02
2022-10-10T20:29:50.778Z,9.25
2022-10-10T20:32:52.690Z,9.70
2022-10-10T20:35:56.171Z,9.40
2022-10-10T20:39:00.555Z,9.47
2022-10-10T20:42:02.567Z,9.65
2022-10-10T20:45:08.013Z,9.23
2022-10-10T20:48:12.476Z,9.27
2022-10-10T20:51:14.444Z,9.27
2022-10-10T20:54:17.535Z,9.50
2022-10-10T20:57:19.467Z,8.73
2022-10-10T21:00:21.540Z,8.85
2022-10-10T21:03:23.450Z,9.90
2022-10-10T21:06:29.632Z,9.43
2022-10-10T21:09:32.864Z,8.65
2022-10-10T21:12:34.790Z,9.50
2022-10-10T21:15:36.730Z,9.02
2022-10-10T21:18:38.684Z,9.07
2022-10-10T21:21:40.724Z,10.17
2022-10-10T21:24:42.664Z,8.45
2022-10-10T21:27:44.574Z,9.40
2022-10-10T21:30:47.607Z,9.27
2022-10-10T21:33:49.773Z,10.02
2022-10-10T21:36:51.797Z,9.53
2022-10-10T21:39:53.736Z,10.88
2022-10-10T21:42:55.666Z,10.43
2022-10-10T21:46:04.725Z,9.68
2022-10-10T21:49:08.458Z,10.07
2022-10-10T21:52:10.470Z,9.83
2022-10-10T21:55:12.375Z,9.32
2022-10-10T21:58:14.319Z,9.48
2022-10-10T22:01:17.756Z,9.52
2022-10-10T22:04:19.763Z,8.83
2022-10-10T22:07:21.716Z,11.60
2022-10-10T22:10:23.639Z,9.65
2022-10-10T22:13:25.687Z,8.88
2022-10-10T22:16:27.929Z,9.27
2022-10-10T22:19:29.875Z,9.40
2022-10-10T22:22:31.879Z,10.10
2022-10-10T22:25:33.893Z,8.80
2022-10-10T22:28:35.988Z,9.57
2022-10-10T22:31:38.141Z,9.30
2022-10-10T22:34:40.142Z,9.10
2022-10-10T22:37:42.137Z,10.20
2022-10-10T22:40:44.088Z,9.38
2022-10-10T22:43:46.029Z,9.93
2022-10-10T22:46:47.998Z,9.18
2022-10-10T22:49:49.928Z,9.30
2022-10-10T22:52:51.902Z,8.70
2022-10-10T22:55:53.846Z,9.32
2022-10-10T22:58:55.848Z,9.27
2022-10-10T23:01:57.803Z,8.93
2022-10-10T23:05:00.785Z,9.53
2022-10-10T23:08:02.752Z,8.60
2022-10-10T23:11:04.696Z,9.13
2022-10-10T23:14:06.614Z,10.98
2022-10-10T23:17:08.586Z,10.07
2022-10-10T23:20:10.640Z,9.23
2022-10-10T23:23:12.870Z,9.37
2022-10-10T23:26:14.821Z,10.23
2022-10-10T23:29:16.821Z,9.18
2022-10-10T23:32:18.754Z,8.73
2022-10-10T23:35:20.725Z,8.67
2022-10-10T23:38:22.641Z,9.00
2022-10-10T23:41:24.641Z,9.00
2022-10-10T23:44:26.600Z,8.95
2022-10-10T23:47:28.546Z,9.52
2022-10-10T23:50:30.463Z,9.40
2022-10-10T23:53:32.933Z,9.30
2022-10-10T23:56:34.945Z,9.50
2022-10-10T23:59:36.891Z,9.73
